createdAt,value
2023-02-16T00:01:53.971Z,1.90
2023-02-16T00:04:23.453Z,1.80
2023-02-16T00:06:50.784Z,1.80
2023-02-16T00:09:18.360Z,1.80
2023-02-16T00:12:04.247Z,1.70
2023-02-16T00:14:33.443Z,1.60
2023-02-16T00:17:01.248Z,1.70
2023-02-16T00:19:35.320Z,1.70
2023-02-16T00:22:02.646Z,1.50
2023-02-16T00:24:30.563Z,1.60
2023-02-16T00:26:59.410Z,1.50
2023-02-16T00:29:37.521Z,1.50
2023-02-16T00:32:05.905Z,1.60
2023-02-16T00:34:35.611Z,1.50
2023-02-16T00:37:10.876Z,1.60
2023-02-16T00:39:38.670Z,1.60
2023-02-16T00:42:13.038Z,1.60
2023-02-16T00:44:46.313Z,1.60
2023-02-16T00:47:23.101Z,1.40
2023-02-16T00:49:52.449Z,1.40
2023-02-16T00:52:33.568Z,1.50
2023-02-16T00:55:02.051Z,1.40
2023-02-16T00:57:33.013Z,1.50
2023-02-16T01:00:24.130Z,1.40
2023-02-16T01:02:53.543Z,1.50
2023-02-16T01:05:20.387Z,1.40
2023-02-16T01:08:06.238Z,1.30
2023-02-16T01:10:52.514Z,1.30
2023-02-16T01:13:19.339Z,1.50
2023-02-16T01:15:46.569Z,1.40
2023-02-16T01:18:15.265Z,1.20
2023-02-16T01:20:42.130Z,1.30
2023-02-16T01:23:09.240Z,1.20
2023-02-16T01:25:36.777Z,1.30
2023-02-16T01:28:04.026Z,1.20
2023-02-16T01:30:30.807Z,1.10
2023-02-16T01:32:57.441Z,1.30
2023-02-16T01:35:29.454Z,1.00
2023-02-16T01:37:56.057Z,1.00
2023-02-16T01:40:34.834Z,1.00
2023-02-16T01:43:36.801Z,1.10
2023-02-16T01:46:13.920Z,0.90
2023-02-16T01:48:40.743Z,0.90
2023-02-16T01:51:20.184Z,0.90
2023-02-16T01:54:03.401Z,1.10
2023-02-16T01:56:40.014Z,1.00
2023-02-16T01:59:30.269Z,1.10
2023-02-16T02:02:05.088Z,1.10
2023-02-16T02:05:07.070Z,1.10
2023-02-16T02:07:51.325Z,0.90
2023-02-16T02:10:30.163Z,1.00
2023-02-16T02:13:07.007Z,1.00
2023-02-16T02:15:34.671Z,1.10
2023-02-16T02:18:01.918Z,1.10
2023-02-16T02:21:07.694Z,1.20
2023-02-16T02:23:52.605Z,1.30
2023-02-16T02:26:57.966Z,1.20
2023-02-16T02:29:50.564Z,1.20
2023-02-16T02:32:23.801Z,1.20
2023-02-16T02:35:12.086Z,1.20
2023-02-16T02:37:51.151Z,1.30
2023-02-16T02:40:46.700Z,1.20
2023-02-16T02:43:19.100Z,1.10
2023-02-16T02:46:11.128Z,1.10
2023-02-16T02:48:38.176Z,1.10
2023-02-16T02:51:26.893Z,1.10
2023-02-16T02:54:23.673Z,1.00
2023-02-16T02:57:16.192Z,1.00
2023-02-16T03:00:09.205Z,1.00
2023-02-16T03:02:38.850Z,0.90
2023-02-16T03:05:08.495Z,0.90
2023-02-16T03:07:49.638Z,1.00
2023-02-16T03:10:37.723Z,1.00
2023-02-16T03:13:09.926Z,0.70
2023-02-16T03:15:37.908Z,0.80
2023-02-16T03:18:25.999Z,0.80
2023-02-16T03:21:11.835Z,0.80
2023-02-16T03:23:58.896Z,0.70
2023-02-16T03:26:46.492Z,0.60
2023-02-16T03:29:22.511Z,0.90
2023-02-16T03:31:51.543Z,0.60
2023-02-16T03:34:20.146Z,0.60
2023-02-16T03:36:50.504Z,0.70
2023-02-16T03:39:17.990Z,0.70
2023-02-16T03:41:52.674Z,0.50
2023-02-16T03:44:19.830Z,0.50
2023-02-16T03:46:49.447Z,0.50
2023-02-16T03:49:17.633Z,0.60
2023-02-16T03:51:45.239Z,0.80
2023-02-16T03:54:12.651Z,0.80
2023-02-16T03:56:39.367Z,0.50
2023-02-16T03:59:05.999Z,0.40
2023-02-16T04:01:33.480Z,0.30
2023-02-16T04:04:00.167Z,0.30
2023-02-16T04:06:26.941Z,0.40
2023-02-16T04:08:54.805Z,0.60
2023-02-16T04:11:40.417Z,0.70
2023-02-16T04:14:07.100Z,0.70
2023-02-16T04:16:33.803Z,0.80
2023-02-16T04:19:00.494Z,0.90
2023-02-16T04:21:27.286Z,0.80
2023-02-16T04:23:54.066Z,0.90
2023-02-16T04:26:20.743Z,0.90
2023-02-16T04:28:47.457Z,0.90
2023-02-16T04:31:14.325Z,0.80
2023-02-16T04:33:41.071Z,0.90
2023-02-16T04:36:08.468Z,0.90
2023-02-16T04:38:35.122Z,0.80
2023-02-16T04:41:01.942Z,1.00
2023-02-16T04:43:28.836Z,1.00
2023-02-16T04:45:55.910Z,0.90
2023-02-16T04:48:22.620Z,0.80
2023-02-16T04:50:50.803Z,0.90
2023-02-16T04:53:17.623Z,0.80
2023-02-16T04:55:50.432Z,0.80
2023-02-16T04:58:17.591Z,0.80
2023-02-16T05:00:44.452Z,0.70
2023-02-16T05:03:11.246Z,0.70
2023-02-16T05:05:38.467Z,0.80
2023-02-16T05:08:05.635Z,0.70
2023-02-16T05:10:32.298Z,0.70
2023-02-16T05:13:17.621Z,0.70
2023-02-16T05:15:45.133Z,0.60
2023-02-16T05:18:13.530Z,0.70
2023-02-16T05:20:58.958Z,0.80
2023-02-16T05:23:25.598Z,0.80
2023-02-16T05:25:52.257Z,0.90
2023-02-16T05:28:18.969Z,0.80
2023-02-16T05:30:45.829Z,0.60
2023-02-16T05:33:12.567Z,0.60
2023-02-16T05:35:39.564Z,0.60
2023-02-16T05:38:06.483Z,0.60
2023-02-16T05:40:33.223Z,0.60
2023-02-16T05:42:59.883Z,0.40
2023-02-16T05:45:26.512Z,0.50
2023-02-16T05:47:53.760Z,0.40
2023-02-16T05:50:20.656Z,0.40
2023-02-16T05:52:47.341Z,0.40
2023-02-16T05:55:14.310Z,0.40
2023-02-16T05:57:40.965Z,0.40
2023-02-16T06:00:08.704Z,0.40
2023-02-16T06:02:35.480Z,0.40
2023-02-16T06:05:02.244Z,0.50
2023-02-16T06:07:29.245Z,0.60
2023-02-16T06:09:55.964Z,0.60
2023-02-16T06:12:22.663Z,0.60
2023-02-16T06:14:49.312Z,0.50
2023-02-16T06:17:16.025Z,0.40
2023-02-16T06:19:42.923Z,0.60
2023-02-16T06:22:09.607Z,0.50
2023-02-16T06:24:37.216Z,0.60
2023-02-16T06:27:04.271Z,0.50
2023-02-16T06:29:31.005Z,2.70
2023-02-16T06:31:58.194Z,3.70
2023-02-16T06:34:25.289Z,3.80
2023-02-16T06:36:51.964Z,3.80
2023-02-16T06:39:19.081Z,3.90
2023-02-16T06:41:45.897Z,3.60
2023-02-16T06:44:15.566Z,3.60
2023-02-16T06:46:44.544Z,4.10
2023-02-16T06:49:13.395Z,4.00
2023-02-16T06:51:40.203Z,3.50
2023-02-16T06:54:07.219Z,3.90
2023-02-16T06:56:35.422Z,4.30
2023-02-16T06:59:03.643Z,4.30
2023-02-16T07:01:31.205Z,4.20
2023-02-16T07:03:58.315Z,3.10
2023-02-16T07:06:27.233Z,1.90
2023-02-16T07:08:54.443Z,1.50
2023-02-16T07:11:21.821Z,1.30
2023-02-16T07:13:48.914Z,1.20
2023-02-16T07:16:16.163Z,1.10
2023-02-16T07:18:43.271Z,1.10
2023-02-16T07:21:09.999Z,1.10
2023-02-16T07:23:37.292Z,1.10
2023-02-16T07:26:04.176Z,1.10
2023-02-16T07:28:31.084Z,1.20
2023-02-16T07:30:57.846Z,1.00
2023-02-16T07:33:24.544Z,0.80
2023-02-16T07:35:51.489Z,0.90
2023-02-16T07:38:18.153Z,0.80
2023-02-16T07:40:44.966Z,0.80
2023-02-16T07:43:11.719Z,0.90
2023-02-16T07:45:38.511Z,1.10
2023-02-16T07:48:05.492Z,1.10
2023-02-16T07:50:32.173Z,1.10
2023-02-16T07:53:02.368Z,1.10
2023-02-16T07:55:29.063Z,1.10
2023-02-16T07:57:58.893Z,1.10
2023-02-16T08:00:26.200Z,1.20
2023-02-16T08:02:53.129Z,1.30
2023-02-16T08:05:19.840Z,1.10
2023-02-16T08:07:47.810Z,1.10
2023-02-16T08:10:15.751Z,1.10
2023-02-16T08:12:42.988Z,1.10
2023-02-16T08:15:11.806Z,1.10
2023-02-16T08:17:38.935Z,1.10
2023-02-16T08:20:07.786Z,1.10
2023-02-16T08:22:35.194Z,1.20
2023-02-16T08:25:01.928Z,1.10
2023-02-16T08:27:28.607Z,1.10
2023-02-16T08:29:55.373Z,1.10
2023-02-16T08:32:22.078Z,1.00
2023-02-16T08:34:48.826Z,1.10
2023-02-16T08:37:15.515Z,1.10
2023-02-16T08:39:42.614Z,1.20
2023-02-16T08:42:13.598Z,1.20
2023-02-16T08:44:42.363Z,1.30
2023-02-16T08:47:10.863Z,1.20
2023-02-16T08:49:39.135Z,1.10
2023-02-16T08:52:06.158Z,1.10
2023-02-16T08:54:33.669Z,1.20
2023-02-16T08:57:03.047Z,1.10
2023-02-16T08:59:30.419Z,1.30
2023-02-16T09:01:59.232Z,1.70
2023-02-16T09:04:28.897Z,1.40
2023-02-16T09:06:58.617Z,1.30
2023-02-16T09:09:26.425Z,1.40
2023-02-16T09:11:53.809Z,1.40
2023-02-16T09:14:21.941Z,1.50
2023-02-16T09:16:49.035Z,1.40
2023-02-16T09:19:19.302Z,1.50
2023-02-16T09:21:47.244Z,1.50
2023-02-16T09:24:13.993Z,1.60
2023-02-16T09:26:43.174Z,1.60
2023-02-16T09:29:13.816Z,1.50
2023-02-16T09:31:41.162Z,1.60
2023-02-16T09:34:19.185Z,1.70
2023-02-16T09:36:47.249Z,1.70
2023-02-16T09:39:14.481Z,1.80
2023-02-16T09:41:49.444Z,1.60
2023-02-16T09:44:53.599Z,1.50
2023-02-16T09:47:30.942Z,1.60
2023-02-16T09:50:02.149Z,1.70
2023-02-16T09:52:36.570Z,1.70
2023-02-16T09:55:08.137Z,1.80
2023-02-16T09:58:12.804Z,1.90
2023-02-16T10:00:53.728Z,2.10
2023-02-16T10:03:41.232Z,2.10
2023-02-16T10:06:13.735Z,2.20
2023-02-16T10:08:55.253Z,2.10
2023-02-16T10:11:38.207Z,2.20
2023-02-16T10:14:23.941Z,2.20
2023-02-16T10:17:16.954Z,2.20
2023-02-16T10:20:18.273Z,2.30
2023-02-16T10:23:23.123Z,2.30
2023-02-16T10:26:00.476Z,2.30
2023-02-16T10:28:38.155Z,2.50
2023-02-16T10:31:29.120Z,2.50
2023-02-16T10:34:18.099Z,2.50
2023-02-16T10:37:19.646Z,2.60
2023-02-16T10:40:14.342Z,2.70
2023-02-16T10:42:53.411Z,2.80
2023-02-16T10:45:42.387Z,2.70
2023-02-16T10:48:10.690Z,2.70
2023-02-16T10:50:51.142Z,2.60
2023-02-16T10:54:11.468Z,2.80
2023-02-16T10:56:56.995Z,2.90
2023-02-16T10:59:26.567Z,2.70
2023-02-16T11:01:59.056Z,2.80
2023-02-16T11:04:43.891Z,2.80
2023-02-16T11:07:13.133Z,2.80
2023-02-16T11:09:41.935Z,3.00
2023-02-16T11:12:28.405Z,3.00
2023-02-16T11:15:03.146Z,3.10
2023-02-16T11:17:32.282Z,3.20
2023-02-16T11:20:24.354Z,3.30
2023-02-16T11:22:51.659Z,3.40
2023-02-16T11:25:18.625Z,3.40
2023-02-16T11:27:52.598Z,3.40
2023-02-16T11:30:29.386Z,3.30
2023-02-16T11:32:56.621Z,3.20
2023-02-16T11:35:23.642Z,3.30
2023-02-16T11:37:51.029Z,3.30
2023-02-16T11:40:28.613Z,3.30
2023-02-16T11:42:58.693Z,3.40
2023-02-16T11:45:36.251Z,3.30
2023-02-16T11:48:07.426Z,3.30
2023-02-16T11:50:38.478Z,3.40
2023-02-16T11:53:11.681Z,3.40
2023-02-16T11:55:43.709Z,3.50
2023-02-16T11:58:27.780Z,3.80
2023-02-16T12:01:22.427Z,3.80
2023-02-16T12:04:04.171Z,3.90
2023-02-16T12:06:52.143Z,3.90
2023-02-16T12:09:55.440Z,4.00
2023-02-16T12:12:33.535Z,4.10
2023-02-16T12:15:14.648Z,4.20
2023-02-16T12:18:00.513Z,4.20
2023-02-16T12:20:41.781Z,4.10
2023-02-16T12:23:38.362Z,4.20
2023-02-16T12:26:37.694Z,4.20
2023-02-16T12:29:44.800Z,4.40
2023-02-16T12:32:20.116Z,4.60
2023-02-16T12:34:58.329Z,4.40
2023-02-16T12:37:50.555Z,4.40
2023-02-16T12:40:49.520Z,4.40
2023-02-16T12:43:54.010Z,4.40
2023-02-16T12:46:39.363Z,4.90
2023-02-16T12:49:35.896Z,5.40
2023-02-16T12:52:08.820Z,5.80
2023-02-16T12:54:48.349Z,6.10
2023-02-16T12:57:18.916Z,6.20
2023-02-16T12:59:59.770Z,6.10
2023-02-16T13:02:33.394Z,6.10
2023-02-16T13:05:09.074Z,6.20
2023-02-16T13:08:01.419Z,6.10
2023-02-16T13:10:47.388Z,6.40
2023-02-16T13:13:18.245Z,6.40
2023-02-16T13:15:53.000Z,6.60
2023-02-16T13:18:28.480Z,6.60
2023-02-16T13:21:19.373Z,6.80
2023-02-16T13:24:23.859Z,6.80
2023-02-16T13:27:07.272Z,6.70
2023-02-16T13:29:52.612Z,6.80
2023-02-16T13:32:37.979Z,6.60
2023-02-16T13:35:26.316Z,6.40
2023-02-16T13:38:28.761Z,6.50
2023-02-16T13:40:58.264Z,6.50
2023-02-16T13:43:37.630Z,6.60
2023-02-16T13:46:12.241Z,6.50
2023-02-16T13:48:47.514Z,6.50
2023-02-16T13:51:18.321Z,6.40
2023-02-16T13:54:01.853Z,6.40
2023-02-16T13:56:36.130Z,6.60
2023-02-16T13:59:35.269Z,6.60
2023-02-16T14:02:02.357Z,6.50
2023-02-16T14:04:31.796Z,6.60
2023-02-16T14:07:01.453Z,6.60
2023-02-16T14:09:36.795Z,6.70
2023-02-16T14:12:11.517Z,6.80
2023-02-16T14:14:53.169Z,6.80
2023-02-16T14:17:19.844Z,6.90
2023-02-16T14:20:07.391Z,6.80
2023-02-16T14:22:40.622Z,6.90
2023-02-16T14:25:28.902Z,6.80
2023-02-16T14:28:06.988Z,6.80
2023-02-16T14:30:53.218Z,6.70
2023-02-16T14:33:40.720Z,6.70
2023-02-16T14:36:19.859Z,6.80
2023-02-16T14:38:52.316Z,6.80
2023-02-16T14:41:34.270Z,6.80
2023-02-16T14:44:07.085Z,6.70
2023-02-16T14:46:58.609Z,6.70
2023-02-16T14:49:43.351Z,6.80
2023-02-16T14:52:37.285Z,6.80
2023-02-16T14:55:30.864Z,6.70
2023-02-16T14:58:20.947Z,6.60
2023-02-16T15:00:54.010Z,6.70
2023-02-16T15:03:23.548Z,6.70
2023-02-16T15:05:57.167Z,6.80
2023-02-16T15:08:35.091Z,6.80
2023-02-16T15:11:13.869Z,6.80
2023-02-16T15:13:41.004Z,6.80
2023-02-16T15:16:13.851Z,6.80
2023-02-16T15:18:44.656Z,6.80
2023-02-16T15:21:26.827Z,6.80
2023-02-16T15:23:56.209Z,6.90
2023-02-16T15:26:29.497Z,6.80
2023-02-16T15:29:22.789Z,6.70
2023-02-16T15:31:49.805Z,6.70
2023-02-16T15:34:28.908Z,6.80
2023-02-16T15:36:55.763Z,6.70
2023-02-16T15:39:45.281Z,6.70
2023-02-16T15:42:22.492Z,6.70
2023-02-16T15:44:49.552Z,6.60
2023-02-16T15:47:26.629Z,6.60
2023-02-16T15:49:55.077Z,6.60
2023-02-16T15:52:34.635Z,6.60
2023-02-16T15:55:04.617Z,6.60
2023-02-16T15:57:37.212Z,6.70
2023-02-16T16:00:21.134Z,6.60
2023-02-16T16:02:54.421Z,6.60
2023-02-16T16:05:33.086Z,6.70
2023-02-16T16:08:01.246Z,6.70
2023-02-16T16:10:39.730Z,6.70
2023-02-16T16:13:23.998Z,6.70
2023-02-16T16:15:51.552Z,6.60
2023-02-16T16:18:39.110Z,6.70
2023-02-16T16:21:26.369Z,6.60
2023-02-16T16:23:55.400Z,6.60
2023-02-16T16:26:23.525Z,6.50
2023-02-16T16:28:51.296Z,6.50
2023-02-16T16:31:21.063Z,6.50
2023-02-16T16:34:06.307Z,6.50
2023-02-16T16:36:53.232Z,6.40
2023-02-16T16:39:23.705Z,6.40
2023-02-16T16:42:16.300Z,6.40
2023-02-16T16:44:53.660Z,6.30
2023-02-16T16:47:33.625Z,6.30
2023-02-16T16:50:02.919Z,6.30
2023-02-16T16:52:37.821Z,6.30
2023-02-16T16:55:22.411Z,6.30
2023-02-16T16:57:51.794Z,6.20
2023-02-16T17:00:19.548Z,6.20
2023-02-16T17:02:46.576Z,6.10
2023-02-16T17:05:13.385Z,6.10
2023-02-16T17:07:40.083Z,6.10
2023-02-16T17:10:07.515Z,6.00
2023-02-16T17:12:34.610Z,6.00
2023-02-16T17:15:02.164Z,6.00
2023-02-16T17:17:28.865Z,5.90
2023-02-16T17:19:55.573Z,6.00
2023-02-16T17:22:22.386Z,6.00
2023-02-16T17:24:49.617Z,6.10
2023-02-16T17:27:16.314Z,6.00
2023-02-16T17:29:44.661Z,6.00
2023-02-16T17:32:11.416Z,6.00
2023-02-16T17:34:38.195Z,6.00
2023-02-16T17:37:09.363Z,6.00
2023-02-16T17:39:36.392Z,6.00
2023-02-16T17:42:03.419Z,5.90
2023-02-16T17:44:30.341Z,5.90
2023-02-16T17:46:57.271Z,5.90
2023-02-16T17:49:24.143Z,5.80
2023-02-16T17:51:50.788Z,5.70
2023-02-16T17:54:17.816Z,5.60
2023-02-16T17:56:45.313Z,5.70
2023-02-16T17:59:16.331Z,5.70
2023-02-16T18:01:44.492Z,5.60
2023-02-16T18:04:11.442Z,5.80
2023-02-16T18:06:38.542Z,5.70
2023-02-16T18:09:05.213Z,5.70
2023-02-16T18:11:32.027Z,5.70
2023-02-16T18:13:58.660Z,5.70
2023-02-16T18:16:28.068Z,5.70
2023-02-16T18:18:57.287Z,5.70
2023-02-16T18:21:24.362Z,5.60
2023-02-16T18:23:51.248Z,5.60
2023-02-16T18:26:18.703Z,5.50
2023-02-16T18:28:45.576Z,5.50
2023-02-16T18:31:14.446Z,5.50
2023-02-16T18:33:41.387Z,5.50
2023-02-16T18:36:08.745Z,5.50
2023-02-16T18:38:35.531Z,5.50
2023-02-16T18:41:02.287Z,5.50
2023-02-16T18:43:29.005Z,5.50
2023-02-16T18:45:55.731Z,5.50
2023-02-16T18:48:22.510Z,5.50
2023-02-16T18:50:49.591Z,5.40
2023-02-16T18:53:16.245Z,5.40
2023-02-16T18:55:43.146Z,5.40
2023-02-16T18:58:13.273Z,5.30
2023-02-16T19:00:40.163Z,5.40
2023-02-16T19:03:07.462Z,5.30
2023-02-16T19:05:34.415Z,5.30
2023-02-16T19:08:01.104Z,5.40
2023-02-16T19:10:28.124Z,5.40
2023-02-16T19:12:54.807Z,5.30
2023-02-16T19:15:21.895Z,5.30
2023-02-16T19:17:48.749Z,5.30
2023-02-16T19:20:18.224Z,5.20
2023-02-16T19:22:49.070Z,5.10
2023-02-16T19:25:16.160Z,5.20
2023-02-16T19:27:43.736Z,5.20
2023-02-16T19:30:11.427Z,5.10
2023-02-16T19:32:40.906Z,5.10
2023-02-16T19:35:11.910Z,5.00
2023-02-16T19:37:39.561Z,5.00
2023-02-16T19:40:08.580Z,5.00
2023-02-16T19:42:35.615Z,5.00
2023-02-16T19:45:02.429Z,5.00
2023-02-16T19:47:29.115Z,5.00
2023-02-16T19:49:55.829Z,4.90
2023-02-16T19:52:22.498Z,4.80
2023-02-16T19:54:49.471Z,4.80
2023-02-16T19:57:16.784Z,4.70
2023-02-16T19:59:43.613Z,4.70
2023-02-16T20:02:15.423Z,4.70
2023-02-16T20:04:43.286Z,4.70
2023-02-16T20:07:10.007Z,4.60
2023-02-16T20:09:37.325Z,4.50
2023-02-16T20:12:05.163Z,4.60
2023-02-16T20:14:31.887Z,4.70
2023-02-16T20:16:58.612Z,4.60
2023-02-16T20:19:25.255Z,4.70
2023-02-16T20:21:51.905Z,4.60
2023-02-16T20:24:18.591Z,4.70
2023-02-16T20:26:46.284Z,4.70
2023-02-16T20:29:16.126Z,4.60
2023-02-16T20:32:04.949Z,4.60
2023-02-16T20:34:32.182Z,4.50
2023-02-16T20:36:59.027Z,4.50
2023-02-16T20:39:25.798Z,4.40
2023-02-16T20:41:52.566Z,4.40
2023-02-16T20:44:19.622Z,4.40
2023-02-16T20:46:46.285Z,4.30
2023-02-16T20:49:13.526Z,4.30
2023-02-16T20:51:41.289Z,4.20
2023-02-16T20:54:08.359Z,4.20
2023-02-16T20:56:35.149Z,4.30
2023-02-16T20:59:01.834Z,4.30
2023-02-16T21:01:31.345Z,4.20
2023-02-16T21:03:58.975Z,4.10
2023-02-16T21:06:26.980Z,4.10
2023-02-16T21:08:53.672Z,4.00
2023-02-16T21:11:20.610Z,4.00
2023-02-16T21:13:47.625Z,3.90
2023-02-16T21:16:14.857Z,3.90
2023-02-16T21:18:41.678Z,3.70
2023-02-16T21:21:09.121Z,3.70
2023-02-16T21:23:35.816Z,3.60
2023-02-16T21:26:05.597Z,3.60
2023-02-16T21:28:32.439Z,3.70
2023-02-16T21:31:07.460Z,3.60
2023-02-16T21:33:34.409Z,3.60
2023-02-16T21:36:27.577Z,3.60
2023-02-16T21:38:54.594Z,3.70
2023-02-16T21:41:25.020Z,3.80
2023-02-16T21:43:58.242Z,3.70
2023-02-16T21:46:25.911Z,3.70
2023-02-16T21:48:52.771Z,3.70
2023-02-16T21:51:24.290Z,3.70
2023-02-16T21:53:51.914Z,3.70
2023-02-16T21:56:43.568Z,3.70
2023-02-16T21:59:13.710Z,3.80
2023-02-16T22:01:45.609Z,3.70
2023-02-16T22:04:15.297Z,3.70
2023-02-16T22:06:44.790Z,3.80
2023-02-16T22:09:19.780Z,3.80
2023-02-16T22:11:47.781Z,3.80
2023-02-16T22:14:14.911Z,3.90
2023-02-16T22:16:43.677Z,3.90
2023-02-16T22:19:15.433Z,3.90
2023-02-16T22:21:44.105Z,3.90
2023-02-16T22:24:13.601Z,4.00
2023-02-16T22:26:40.904Z,4.00
2023-02-16T22:29:08.262Z,4.10
2023-02-16T22:31:36.504Z,3.90
2023-02-16T22:34:06.378Z,3.90
2023-02-16T22:36:33.811Z,4.00
2023-02-16T22:39:00.499Z,3.90
2023-02-16T22:41:27.206Z,3.90
2023-02-16T22:43:55.527Z,4.00
2023-02-16T22:46:23.845Z,4.00
2023-02-16T22:48:52.175Z,3.90
2023-02-16T22:51:20.409Z,3.90
2023-02-16T22:53:47.852Z,3.90
2023-02-16T22:56:16.857Z,4.00
2023-02-16T22:58:44.282Z,3.90
2023-02-16T23:01:17.302Z,4.10
2023-02-16T23:03:48.063Z,4.00
2023-02-16T23:06:17.144Z,4.10
2023-02-16T23:08:44.415Z,4.10
2023-02-16T23:11:11.830Z,4.10
2023-02-16T23:13:38.741Z,4.10
2023-02-16T23:16:13.733Z,4.20
2023-02-16T23:18:41.290Z,4.20
2023-02-16T23:21:16.739Z,4.10
2023-02-16T23:23:44.168Z,4.20
2023-02-16T23:26:11.039Z,4.20
2023-02-16T23:28:40.578Z,4.20
2023-02-16T23:31:07.340Z,4.10
2023-02-16T23:33:34.569Z,4.10
2023-02-16T23:36:01.571Z,4.00
2023-02-16T23:38:28.196Z,4.00
2023-02-16T23:40:58.365Z,4.00
2023-02-16T23:43:25.812Z,4.10
2023-02-16T23:45:53.469Z,4.10
2023-02-16T23:48:21.026Z,4.10
2023-02-16T23:50:49.128Z,4.10
2023-02-16T23:53:15.820Z,4.10
2023-02-16T23:55:42.811Z,4.20
2023-02-16T23:58:09.617Z,4.10
